Time;durP1;ratioP1;P1;durP2;ratioP2;P2;SDS_P1;SDS_P2;PMS_P1;PMS_P2;Temp;Humidity;BMP_temperature;BMP_pressure;BME280_temperature;BME280_humidity;BME280_pressure;Samples;Min_cycle;Max_cycle;Signal;HPM_P1;HPM_P2
2022/06/29 00:00:13;;;;;;;4.43;1.95;;;17.70;99.90;;;;;;5030845;28;20044;-62
2022/06/29 00:02:39;;;;;;;5.40;2.00;;;17.70;99.90;;;;;;5049120;28;20389;-62
2022/06/29 00:05:06;;;;;;;5.50;2.05;;;17.60;99.90;;;;;;5048484;28;20474;-61
2022/06/29 00:07:32;;;;;;;4.30;2.15;;;17.70;99.90;;;;;;5055060;28;20043;-62
2022/06/29 00:09:58;;;;;;;5.10;1.92;;;17.60;99.90;;;;;;5054219;28;20462;-62
2022/06/29 00:12:24;;;;;;;4.38;2.10;;;17.60;99.90;;;;;;5045607;28;20036;-62
2022/06/29 00:14:50;;;;;;;4.28;1.92;;;17.70;99.90;;;;;;5049201;28;20438;-62
2022/06/29 00:17:16;;;;;;;5.50;1.90;;;17.70;99.90;;;;;;5052197;28;20032;-61
2022/06/29 00:19:41;;;;;;;3.50;1.92;;;17.70;99.90;;;;;;5049905;28;20044;-61
2022/06/29 00:22:09;;;;;;;6.00;2.00;;;17.70;99.90;;;;;;5027542;28;20072;-61
2022/06/29 00:24:35;;;;;;;3.42;1.98;;;17.60;99.90;;;;;;5025992;28;20034;-64
2022/06/29 00:27:01;;;;;;;5.22;1.85;;;17.60;99.90;;;;;;5028917;28;20124;-62
2022/06/29 00:29:28;;;;;;;5.63;2.15;;;17.60;99.90;;;;;;5033926;28;20038;-61
2022/06/29 00:31:54;;;;;;;4.57;2.00;;;17.60;99.90;;;;;;5027006;28;20087;-61
2022/06/29 00:34:19;;;;;;;5.68;1.70;;;17.50;99.90;;;;;;5029274;28;20033;-62
2022/06/29 00:36:45;;;;;;;2.78;1.60;;;17.50;99.90;;;;;;5031739;28;20048;-62
2022/06/29 00:39:11;;;;;;;3.50;1.73;;;17.60;99.90;;;;;;5030673;28;20043;-61
2022/06/29 00:41:38;;;;;;;4.30;1.77;;;17.60;99.90;;;;;;5012847;28;20059;-61
2022/06/29 00:44:04;;;;;;;4.88;1.75;;;17.60;99.90;;;;;;5027386;28;20785;-61
2022/06/29 00:46:30;;;;;;;4.28;2.00;;;17.70;99.90;;;;;;5028769;28;20562;-61
2022/06/29 00:48:55;;;;;;;3.88;1.80;;;17.60;99.90;;;;;;5028291;28;20324;-60
2022/06/29 00:51:22;;;;;;;4.95;2.00;;;17.60;99.90;;;;;;5031269;28;20033;-61
2022/06/29 00:53:50;;;;;;;3.08;1.95;;;17.60;99.90;;;;;;5026693;28;20068;-61
2022/06/29 00:56:17;;;;;;;4.68;1.88;;;17.60;99.90;;;;;;5028489;28;20120;-61
2022/06/29 00:58:45;;;;;;;2.95;1.98;;;17.60;99.90;;;;;;5028666;28;20453;-61
2022/06/29 01:01:12;;;;;;;3.53;1.95;;;17.60;99.90;;;;;;5028251;28;20030;-61
2022/06/29 01:03:38;;;;;;;4.95;2.15;;;17.60;99.90;;;;;;5012375;28;20056;-61
2022/06/29 01:06:04;;;;;;;3.78;1.77;;;17.50;99.90;;;;;;5027875;28;20037;-61
2022/06/29 01:08:30;;;;;;;3.22;1.80;;;17.50;99.90;;;;;;5029610;28;20076;-61
2022/06/29 01:10:55;;;;;;;3.47;1.80;;;17.50;99.90;;;;;;5029423;28;20040;-61
2022/06/29 01:13:21;;;;;;;4.07;1.70;;;17.40;99.90;;;;;;5024366;28;20034;-61
2022/06/29 01:15:47;;;;;;;3.75;1.75;;;17.30;99.90;;;;;;5009556;28;20038;-61
2022/06/29 01:18:12;;;;;;;4.63;1.83;;;17.30;99.90;;;;;;5031447;28;20513;-60
2022/06/29 01:20:38;;;;;;;4.38;2.05;;;17.30;99.90;;;;;;5032457;28;20092;-61
2022/06/29 01:23:04;;;;;;;3.55;1.80;;;17.30;99.90;;;;;;5027662;28;20382;-61
2022/06/29 01:25:29;;;;;;;5.55;2.10;;;17.30;99.90;;;;;;5029948;28;20478;-61
2022/06/29 01:27:55;;;;;;;5.07;2.08;;;17.20;99.90;;;;;;5029282;28;20037;-61
2022/06/29 01:30:21;;;;;;;5.22;2.00;;;17.20;99.90;;;;;;5029877;28;20040;-61
2022/06/29 01:32:46;;;;;;;3.85;2.00;;;17.20;99.90;;;;;;5030736;28;20631;-62
2022/06/29 01:35:13;;;;;;;3.78;1.83;;;17.20;99.90;;;;;;5026787;28;20041;-63
2022/06/29 01:37:40;;;;;;;3.67;2.00;;;17.20;99.90;;;;;;5031749;28;20131;-61
2022/06/29 01:40:07;;;;;;;3.95;2.00;;;17.20;99.90;;;;;;5024639;28;20437;-61
2022/06/29 01:42:32;;;;;;;5.30;2.00;;;17.20;99.90;;;;;;5027314;28;20030;-62
2022/06/29 01:44:58;;;;;;;4.32;1.90;;;17.20;99.90;;;;;;5029357;28;20351;-61
2022/06/29 01:47:24;;;;;;;3.38;2.10;;;17.10;99.90;;;;;;5027331;28;20047;-62
2022/06/29 01:49:50;;;;;;;3.15;1.80;;;17.20;99.90;;;;;;5025514;28;20328;-61
2022/06/29 01:52:16;;;;;;;5.30;2.00;;;17.20;99.90;;;;;;5030737;28;20037;-61
2022/06/29 01:54:42;;;;;;;3.17;1.83;;;17.30;99.90;;;;;;5029592;28;20052;-61
2022/06/29 01:57:07;;;;;;;5.80;1.98;;;17.20;99.90;;;;;;5028697;28;20037;-61
2022/06/29 01:59:33;;;;;;;4.93;2.15;;;17.30;99.90;;;;;;5027477;28;20080;-62
2022/06/29 02:01:59;;;;;;;2.97;2.03;;;17.20;99.90;;;;;;5027267;28;20095;-61
2022/06/29 02:04:24;;;;;;;3.15;1.85;;;17.20;99.90;;;;;;5027915;28;20099;-61
2022/06/29 02:06:50;;;;;;;3.00;2.17;;;17.20;99.90;;;;;;5027852;28;20037;-62
2022/06/29 02:09:16;;;;;;;4.43;2.13;;;17.20;99.90;;;;;;5027900;28;20113;-61
2022/06/29 02:11:42;;;;;;;3.53;2.03;;;17.30;99.90;;;;;;5027082;28;20052;-61
2022/06/29 02:14:08;;;;;;;3.17;1.60;;;17.30;99.90;;;;;;5023235;28;20080;-62
2022/06/29 02:16:34;;;;;;;6.13;2.10;;;17.30;99.90;;;;;;5028190;28;20148;-62
2022/06/29 02:18:59;;;;;;;3.47;2.15;;;17.40;99.90;;;;;;5028113;28;20511;-62
2022/06/29 02:21:25;;;;;;;3.75;1.90;;;17.40;99.90;;;;;;5040007;28;20052;-61
2022/06/29 02:23:51;;;;;;;3.03;2.28;;;17.40;99.90;;;;;;5040124;28;20633;-62
2022/06/29 02:26:17;;;;;;;4.55;2.35;;;17.40;99.90;;;;;;5048052;28;20029;-61
2022/06/29 02:28:43;;;;;;;4.32;2.20;;;17.30;99.90;;;;;;5046096;28;20107;-61
2022/06/29 02:36:37;;;;;;;4.35;2.45;;;17.30;99.90;;;;;;5050742;28;20041;-62
2022/06/29 02:39:02;;;;;;;6.45;2.17;;;17.30;99.90;;;;;;5048144;28;20091;-60
2022/06/29 02:41:28;;;;;;;3.83;2.50;;;17.30;99.90;;;;;;5046076;28;20040;-61
2022/06/29 02:43:54;;;;;;;5.03;2.38;;;17.30;99.90;;;;;;5044915;28;20431;-62
2022/06/29 02:46:19;;;;;;;4.90;2.20;;;17.30;99.90;;;;;;5046752;28;20033;-61
2022/06/29 02:48:45;;;;;;;4.50;2.40;;;17.30;99.90;;;;;;5048169;28;20456;-61
2022/06/29 02:51:11;;;;;;;5.65;2.53;;;17.30;99.90;;;;;;5047826;28;20431;-62
2022/06/29 02:53:37;;;;;;;5.72;2.50;;;17.20;99.90;;;;;;5047776;28;20053;-61
2022/06/29 02:56:03;;;;;;;5.47;2.70;;;17.20;99.90;;;;;;5048936;28;20037;-61
2022/06/29 02:58:29;;;;;;;3.97;2.53;;;17.20;99.90;;;;;;5047539;28;20046;-61
2022/06/29 03:00:54;;;;;;;6.45;2.70;;;17.20;99.90;;;;;;5046802;28;20041;-62
2022/06/29 03:03:20;;;;;;;3.58;2.20;;;17.10;99.90;;;;;;5047616;28;20032;-62
2022/06/29 03:05:46;;;;;;;4.47;2.50;;;17.10;99.90;;;;;;5044579;28;20033;-62
2022/06/29 03:08:12;;;;;;;6.93;2.80;;;17.10;99.90;;;;;;5050691;28;20037;-62
2022/06/29 03:10:37;;;;;;;2.80;2.28;;;17.00;99.90;;;;;;5047875;28;20434;-61
2022/06/29 03:13:03;;;;;;;4.15;2.40;;;17.00;99.90;;;;;;5043336;28;20101;-61
2022/06/29 03:15:29;;;;;;;6.22;2.50;;;17.00;99.90;;;;;;5047393;28;20450;-62
2022/06/29 03:17:55;;;;;;;5.45;2.80;;;16.90;99.90;;;;;;5047724;28;20106;-61
2022/06/29 03:20:22;;;;;;;6.43;2.67;;;16.90;99.90;;;;;;5047870;28;20378;-62
2022/06/29 03:22:48;;;;;;;3.97;2.60;;;16.90;99.90;;;;;;5048139;28;20351;-61
2022/06/29 03:25:17;;;;;;;3.65;2.58;;;16.80;99.90;;;;;;5024916;28;20083;-61
2022/06/29 03:27:43;;;;;;;6.05;3.05;;;16.70;99.90;;;;;;5043494;28;20057;-61
2022/06/29 03:30:10;;;;;;;4.82;2.72;;;16.70;99.90;;;;;;5047672;28;20059;-61
2022/06/29 03:32:36;;;;;;;5.05;2.80;;;16.70;99.90;;;;;;5047303;28;20171;-61
2022/06/29 03:35:02;;;;;;;4.75;2.50;;;16.60;99.90;;;;;;5046210;28;20386;-61
2022/06/29 03:37:28;;;;;;;6.03;3.00;;;16.60;99.90;;;;;;5052848;28;20029;-61
2022/06/29 03:39:53;;;;;;;5.05;2.80;;;16.50;99.90;;;;;;5048766;28;20086;-61
2022/06/29 03:42:19;;;;;;;3.92;2.92;;;16.50;99.90;;;;;;5048629;28;20040;-61
2022/06/29 03:44:44;;;;;;;4.85;2.78;;;16.50;99.90;;;;;;5051555;28;20047;-62
2022/06/29 03:47:10;;;;;;;4.38;3.05;;;16.40;99.90;;;;;;5047385;28;20037;-61
2022/06/29 03:49:36;;;;;;;5.80;3.13;;;16.40;99.90;;;;;;5051792;28;20029;-61
2022/06/29 03:52:05;;;;;;;5.03;2.90;;;16.40;99.90;;;;;;5051026;28;20343;-61
2022/06/29 03:54:31;;;;;;;4.97;3.25;;;16.40;99.90;;;;;;5051574;28;20466;-61
2022/06/29 03:56:58;;;;;;;4.80;3.05;;;16.40;99.90;;;;;;5050370;28;20401;-62
2022/06/29 03:59:23;;;;;;;4.75;3.00;;;16.40;99.90;;;;;;5051918;28;20040;-61
2022/06/29 04:01:50;;;;;;;5.68;3.10;;;16.30;99.90;;;;;;5049381;28;20068;-61
2022/06/29 04:04:16;;;;;;;6.15;2.75;;;16.40;99.90;;;;;;5050130;28;20037;-61
2022/06/29 04:06:42;;;;;;;6.60;3.33;;;16.40;99.90;;;;;;5050327;28;20125;-61
2022/06/29 04:09:08;;;;;;;7.03;3.20;;;16.40;99.90;;;;;;5052460;28;20124;-62
2022/06/29 04:11:48;;;;;;;6.70;3.28;;;16.40;99.90;;;;;;5050353;28;20043;-61
2022/06/29 04:14:18;;;;;;;5.78;3.13;;;16.40;99.90;;;;;;5043870;28;20053;-61
2022/06/29 04:16:44;;;;;;;6.15;3.45;;;16.40;99.90;;;;;;5052963;28;20420;-61
2022/06/29 04:19:10;;;;;;;5.22;3.35;;;16.40;99.90;;;;;;5049969;28;20462;-62
2022/06/29 04:21:36;;;;;;;6.03;2.95;;;16.40;99.90;;;;;;5047715;28;20057;-61
2022/06/29 04:24:02;;;;;;;5.20;3.35;;;16.40;99.90;;;;;;5048783;28;20080;-62
2022/06/29 04:26:28;;;;;;;3.90;3.00;;;16.40;99.90;;;;;;5048980;28;20076;-61
2022/06/29 04:28:54;;;;;;;7.05;3.20;;;16.40;99.90;;;;;;5049614;28;20453;-61
2022/06/29 04:31:20;;;;;;;6.25;3.60;;;16.50;99.90;;;;;;5050284;28;20037;-61
2022/06/29 04:33:45;;;;;;;4.55;3.15;;;16.50;99.90;;;;;;5050192;28;20469;-61
2022/06/29 04:36:11;;;;;;;4.50;3.10;;;16.50;99.90;;;;;;5050628;28;20098;-62
2022/06/29 04:38:37;;;;;;;6.30;3.45;;;16.50;99.90;;;;;;5042998;28;20033;-61
2022/06/29 04:41:03;;;;;;;6.28;3.40;;;16.50;99.90;;;;;;5045103;28;20045;-61
2022/06/29 04:43:29;;;;;;;6.05;3.42;;;16.60;99.90;;;;;;5043182;28;20052;-62
2022/06/29 04:48:40;;;;;;;5.85;3.40;;;16.60;99.90;;;;;;5035925;28;20059;-60
2022/06/29 04:51:06;;;;;;;7.10;3.53;;;16.80;99.90;;;;;;5043844;28;20124;-61
2022/06/29 04:53:31;;;;;;;5.95;3.55;;;16.80;99.90;;;;;;5045414;28;20505;-62
2022/06/29 04:55:57;;;;;;;5.40;3.65;;;16.80;99.90;;;;;;5046197;28;20089;-61
2022/06/29 04:58:23;;;;;;;6.05;3.58;;;17.10;99.90;;;;;;5043397;28;20033;-61
2022/06/29 05:00:48;;;;;;;4.93;3.10;;;17.70;99.90;;;;;;5047948;28;20742;-60
2022/06/29 05:03:14;;;;;;;6.88;3.30;;;18.70;99.90;;;;;;5047727;28;20123;-62
2022/06/29 05:05:40;;;;;;;6.30;2.90;;;19.70;99.90;;;;;;5048384;28;20037;-61
2022/06/29 05:08:06;;;;;;;5.53;3.33;;;20.40;99.90;;;;;;5046002;28;20045;-62
2022/06/29 05:10:32;;;;;;;6.95;2.88;;;21.10;99.90;;;;;;5042577;28;20033;-61
2022/06/29 05:12:58;;;;;;;6.47;3.30;;;21.90;99.90;;;;;;5046104;28;20056;-62
2022/06/29 05:15:23;;;;;;;5.90;3.08;;;22.40;99.90;;;;;;5049032;28;20426;-62
2022/06/29 05:17:49;;;;;;;6.40;3.25;;;22.60;99.90;;;;;;5048759;28;20037;-61
2022/06/29 05:20:15;;;;;;;4.10;3.03;;;23.00;99.90;;;;;;5049561;28;20457;-62
2022/06/29 05:22:41;;;;;;;3.58;2.88;;;23.50;99.90;;;;;;5047089;28;20137;-62
2022/06/29 05:25:07;;;;;;;8.15;3.20;;;23.80;99.60;;;;;;5047650;28;20458;-62
2022/06/29 05:27:33;;;;;;;5.63;2.80;;;24.10;99.20;;;;;;5049563;28;20362;-65
2022/06/29 05:29:59;;;;;;;5.45;2.88;;;24.30;98.80;;;;;;5050131;28;20033;-62
2022/06/29 05:32:24;;;;;;;4.45;2.80;;;24.70;98.50;;;;;;5030653;28;20358;-61
2022/06/29 05:34:50;;;;;;;6.80;3.00;;;24.60;98.20;;;;;;5046936;28;20090;-62
2022/06/29 05:37:16;;;;;;;6.25;2.90;;;24.80;97.80;;;;;;5049485;28;20344;-62
2022/06/29 05:39:42;;;;;;;6.30;2.55;;;25.00;97.80;;;;;;5052654;28;20033;-62
2022/06/29 05:42:08;;;;;;;3.92;2.80;;;25.40;97.60;;;;;;5047788;28;20064;-63
2022/06/29 05:44:34;;;;;;;3.72;2.47;;;25.60;97.10;;;;;;5029435;28;20100;-63
2022/06/29 05:47:00;;;;;;;6.28;2.72;;;25.90;97.00;;;;;;5027999;28;21307;-62
2022/06/29 05:49:26;;;;;;;4.15;2.53;;;26.00;96.30;;;;;;5045758;28;20037;-62
2022/06/29 05:51:52;;;;;;;6.07;2.53;;;25.90;95.90;;;;;;5031244;28;20540;-63
2022/06/29 05:54:17;;;;;;;3.83;2.28;;;25.80;96.00;;;;;;5049465;28;20036;-63
2022/06/29 05:56:43;;;;;;;5.72;2.28;;;26.00;96.20;;;;;;5049427;28;20032;-62
2022/06/29 05:59:09;;;;;;;6.47;2.50;;;26.10;95.50;;;;;;5046593;28;20470;-63
2022/06/29 06:01:34;;;;;;;4.18;2.40;;;26.10;95.50;;;;;;5047283;28;20409;-63
2022/06/29 06:04:00;;;;;;;3.60;2.38;;;26.40;95.50;;;;;;5049505;28;20045;-62
2022/06/29 06:06:25;;;;;;;5.90;2.42;;;26.50;95.10;;;;;;5047878;28;20044;-63
2022/06/29 06:08:51;;;;;;;4.68;2.72;;;26.80;94.80;;;;;;5051197;28;20421;-63
2022/06/29 06:11:17;;;;;;;4.85;2.47;;;26.90;94.50;;;;;;5051566;28;20033;-63
2022/06/29 06:13:42;;;;;;;3.75;2.33;;;26.80;94.60;;;;;;5043933;28;20045;-63
2022/06/29 06:16:09;;;;;;;6.30;2.65;;;26.80;94.50;;;;;;5046903;28;20056;-63
2022/06/29 06:18:35;;;;;;;4.85;2.33;;;26.80;94.70;;;;;;5048434;28;20521;-63
2022/06/29 06:21:02;;;;;;;3.92;2.28;;;26.70;94.20;;;;;;5049679;28;20493;-62
2022/06/29 06:23:28;;;;;;;3.95;2.60;;;26.70;94.20;;;;;;5046115;28;20049;-65
2022/06/29 06:25:55;;;;;;;4.05;2.60;;;26.70;94.10;;;;;;5029348;28;20050;-62
2022/06/29 06:28:21;;;;;;;4.13;2.47;;;26.60;94.40;;;;;;5047479;28;20029;-64
2022/06/29 06:30:47;;;;;;;4.20;2.30;;;26.60;94.20;;;;;;5050601;28;20124;-62
2022/06/29 06:33:12;;;;;;;3.75;2.40;;;26.70;94.20;;;;;;5047665;28;20113;-62
2022/06/29 06:35:38;;;;;;;4.22;2.50;;;26.80;94.20;;;;;;5048417;28;20524;-65
2022/06/29 06:38:04;;;;;;;7.55;2.53;;;26.90;94.10;;;;;;5048463;28;20037;-63
2022/06/29 06:43:14;;;;;;;6.35;2.38;;;26.80;93.60;;;;;;5044085;28;20033;-63
2022/06/29 06:45:39;;;;;;;4.75;2.35;;;26.70;93.80;;;;;;5046979;28;20047;-63
2022/06/29 06:48:05;;;;;;;4.63;2.70;;;26.90;93.90;;;;;;5044780;28;20125;-64
2022/06/29 06:50:31;;;;;;;4.68;2.53;;;27.10;93.90;;;;;;5047259;28;20064;-64
2022/06/29 06:52:56;;;;;;;3.97;2.40;;;27.40;93.40;;;;;;5047109;28;20050;-64
2022/06/29 06:55:22;;;;;;;5.03;2.45;;;27.10;93.40;;;;;;5048439;28;20041;-66
2022/06/29 06:57:48;;;;;;;8.85;2.67;;;27.30;93.30;;;;;;5047633;28;20037;-63
2022/06/29 07:00:14;;;;;;;6.50;2.67;;;27.20;93.60;;;;;;5046919;28;20075;-63
2022/06/29 07:02:40;;;;;;;4.43;2.28;;;27.20;93.70;;;;;;5045181;28;20037;-63
2022/06/29 07:05:06;;;;;;;3.92;2.60;;;26.80;94.00;;;;;;5046033;28;20033;-62
2022/06/29 07:07:32;;;;;;;4.07;2.42;;;26.40;94.50;;;;;;5049528;28;20350;-63
2022/06/29 07:09:58;;;;;;;3.97;2.60;;;26.00;94.60;;;;;;5052408;28;20063;-62
2022/06/29 07:12:23;;;;;;;3.72;2.10;;;25.60;95.10;;;;;;5047468;28;20064;-63
2022/06/29 07:14:49;;;;;;;3.88;2.35;;;25.30;95.40;;;;;;5048715;28;20059;-62
2022/06/29 07:17:15;;;;;;;4.63;2.30;;;25.30;95.60;;;;;;5054353;28;20524;-63
2022/06/29 07:19:40;;;;;;;3.17;2.30;;;25.40;95.80;;;;;;5054854;28;20529;-62
2022/06/29 07:22:06;;;;;;;3.63;2.50;;;25.20;95.80;;;;;;5049486;28;20056;-63
2022/06/29 07:24:32;;;;;;;4.97;2.33;;;25.20;95.80;;;;;;5049693;28;20047;-63
2022/06/29 07:26:58;;;;;;;5.03;2.25;;;25.30;96.00;;;;;;5051918;28;20036;-62
2022/06/29 07:29:24;;;;;;;5.72;2.38;;;25.30;96.10;;;;;;5050805;28;20036;-62
2022/06/29 07:31:50;;;;;;;4.40;2.10;;;25.30;95.90;;;;;;5049657;28;20075;-63
2022/06/29 07:34:16;;;;;;;5.22;2.35;;;25.30;95.90;;;;;;5050949;28;20029;-63
2022/06/29 07:36:42;;;;;;;3.78;2.40;;;25.40;95.90;;;;;;5052217;28;20047;-63
2022/06/29 07:39:08;;;;;;;3.47;2.10;;;25.50;96.00;;;;;;5048807;28;20527;-62
2022/06/29 07:41:33;;;;;;;5.05;2.42;;;25.60;96.00;;;;;;5049469;28;20044;-62
2022/06/29 07:43:59;;;;;;;6.50;2.60;;;25.70;96.00;;;;;;5048448;28;20528;-62
2022/06/29 07:46:25;;;;;;;6.10;2.28;;;25.90;96.00;;;;;;5050780;28;20116;-63
2022/06/29 07:48:51;;;;;;;4.72;2.40;;;26.00;95.60;;;;;;5048884;28;20116;-63
2022/06/29 07:51:16;;;;;;;3.40;2.00;;;25.90;95.40;;;;;;5051255;28;20037;-63
2022/06/29 07:53:42;;;;;;;6.75;2.15;;;25.90;95.40;;;;;;5046456;28;20037;-62
2022/06/29 07:56:08;;;;;;;2.53;2.00;;;25.90;95.50;;;;;;5047975;28;20063;-63
2022/06/29 07:58:33;;;;;;;6.57;2.28;;;26.00;95.40;;;;;;5046536;28;20110;-63
2022/06/29 08:00:59;;;;;;;3.72;2.00;;;26.10;95.30;;;;;;5047669;28;20478;-63
2022/06/29 08:03:24;;;;;;;3.90;2.10;;;26.20;95.20;;;;;;5051213;28;20029;-63
2022/06/29 08:05:50;;;;;;;4.43;2.50;;;26.30;95.20;;;;;;5051533;28;20040;-63
2022/06/29 08:08:16;;;;;;;4.13;2.30;;;26.40;95.20;;;;;;5050894;28;20044;-64
2022/06/29 08:10:42;;;;;;;2.55;1.92;;;26.40;95.40;;;;;;5049177;28;20044;-63
2022/06/29 08:13:08;;;;;;;4.45;2.25;;;26.40;95.50;;;;;;5047677;28;20064;-63
2022/06/29 08:15:34;;;;;;;5.78;2.20;;;26.40;95.50;;;;;;5046673;28;20084;-62
2022/06/29 08:18:01;;;;;;;3.75;2.10;;;26.40;95.40;;;;;;5050827;28;20043;-63
2022/06/29 08:20:28;;;;;;;5.40;2.28;;;26.30;95.40;;;;;;5050318;28;20420;-62
2022/06/29 08:22:54;;;;;;;3.97;2.40;;;26.50;95.40;;;;;;5050629;28;20152;-63
2022/06/29 08:25:20;;;;;;;4.70;2.97;;;26.50;95.40;;;;;;5047364;28;20029;-63
2022/06/29 08:27:54;;;;;;;4.72;2.55;;;26.60;95.40;;;;;;5048426;28;20129;-63
2022/06/29 08:30:20;;;;;;;2.83;2.00;;;26.50;94.90;;;;;;5050417;28;20466;-63
2022/06/29 08:32:45;;;;;;;9.55;2.42;;;26.50;95.40;;;;;;5051479;28;20041;-63
2022/06/29 08:35:12;;;;;;;4.97;2.20;;;26.60;95.50;;;;;;5047779;28;20454;-63
2022/06/29 08:37:38;;;;;;;4.63;2.38;;;26.60;95.20;;;;;;5033054;28;20103;-63
2022/06/29 08:40:09;;;;;;;3.90;2.00;;;26.50;95.00;;;;;;5046698;28;20036;-63
2022/06/29 08:42:36;;;;;;;3.20;1.70;;;26.50;95.00;;;;;;5043313;28;20474;-63
2022/06/29 08:45:04;;;;;;;3.92;2.17;;;26.50;94.90;;;;;;5049787;28;20043;-63
2022/06/29 08:47:30;;;;;;;3.42;1.92;;;26.60;94.70;;;;;;5048601;28;20044;-63
2022/06/29 08:49:56;;;;;;;4.22;2.10;;;26.70;95.00;;;;;;5047413;28;20025;-63
2022/06/29 08:52:25;;;;;;;5.00;1.98;;;26.80;94.80;;;;;;5049315;28;20076;-62
2022/06/29 08:54:53;;;;;;;2.78;1.80;;;26.80;94.90;;;;;;5044835;28;20047;-63
2022/06/29 08:57:19;;;;;;;3.75;1.90;;;26.90;95.00;;;;;;5047591;28;20644;-62
2022/06/29 08:59:45;;;;;;;3.25;1.80;;;27.00;95.10;;;;;;5048023;28;20044;-63
2022/06/29 09:02:13;;;;;;;4.10;2.10;;;27.10;95.10;;;;;;5046861;28;20044;-63
2022/06/29 09:04:39;;;;;;;3.97;1.45;;;27.20;94.70;;;;;;5050238;28;20033;-63
2022/06/29 09:07:05;;;;;;;3.17;1.80;;;27.20;94.40;;;;;;5048986;28;20029;-63
2022/06/29 09:09:30;;;;;;;2.65;1.80;;;27.40;94.20;;;;;;5052204;28;20457;-63
2022/06/29 09:11:56;;;;;;;3.75;1.70;;;27.40;94.00;;;;;;5046961;28;20036;-63
2022/06/29 09:14:27;;;;;;;4.05;1.70;;;27.40;93.60;;;;;;5045324;28;20038;-62
2022/06/29 09:17:03;;;;;;;2.55;1.67;;;27.30;93.70;;;;;;5049525;28;20041;-62
2022/06/29 09:19:44;;;;;;;2.78;1.90;;;27.30;93.40;;;;;;5049696;28;20049;-63
2022/06/29 09:22:10;;;;;;;3.67;1.90;;;27.20;93.40;;;;;;5046480;28;20128;-62
2022/06/29 09:24:36;;;;;;;3.85;1.85;;;27.20;93.40;;;;;;5047413;28;20127;-62
2022/06/29 09:27:05;;;;;;;3.47;1.58;;;27.30;94.10;;;;;;5047880;28;20481;-63
2022/06/29 09:29:33;;;;;;;1.98;1.73;;;27.30;94.40;;;;;;5050253;28;20098;-63
2022/06/29 09:32:01;;;;;;;4.47;1.77;;;27.40;94.00;;;;;;5046933;28;20028;-63
2022/06/29 09:34:34;;;;;;;3.70;1.73;;;27.50;93.60;;;;;;5046784;28;20037;-63
2022/06/29 09:37:01;;;;;;;4.37;1.70;;;27.60;93.70;;;;;;5047772;28;20037;-62
2022/06/29 09:39:37;;;;;;;4.30;1.83;;;27.50;93.70;;;;;;5048863;28;20362;-64
2022/06/29 09:42:06;;;;;;;3.28;1.88;;;27.50;93.90;;;;;;5046363;28;20464;-62
2022/06/29 09:44:31;;;;;;;3.30;1.80;;;27.50;93.60;;;;;;5047641;28;20167;-62
2022/06/29 09:46:58;;;;;;;2.80;1.70;;;27.40;93.10;;;;;;5045416;28;20459;-63
2022/06/29 09:49:29;;;;;;;6.35;1.95;;;27.30;93.30;;;;;;5048215;28;20033;-62
2022/06/29 09:51:57;;;;;;;4.30;1.65;;;27.30;93.60;;;;;;5045436;28;20335;-63
2022/06/29 09:54:25;;;;;;;3.42;1.63;;;27.40;93.30;;;;;;5032330;28;20048;-62
2022/06/29 09:56:55;;;;;;;3.63;1.70;;;27.60;93.40;;;;;;5048696;28;20044;-63
2022/06/29 10:05:07;;;;;;;4.40;2.10;;;28.00;93.30;;;;;;5047507;28;20131;-62
2022/06/29 10:07:35;;;;;;;2.42;1.67;;;28.00;93.10;;;;;;5048489;28;20408;-62
2022/06/29 10:10:06;;;;;;;2.88;1.73;;;27.90;93.10;;;;;;5052442;28;20449;-63
2022/06/29 10:15:33;;;;;;;2.75;1.73;;;27.90;92.70;;;;;;5048747;28;20060;-63
2022/06/29 10:18:21;;;;;;;4.70;1.98;;;28.00;92.80;;;;;;5047999;28;20450;-63
2022/06/29 10:20:48;;;;;;;3.92;1.75;;;28.10;92.70;;;;;;5047024;28;20061;-63
2022/06/29 10:23:46;;;;;;;2.10;1.65;;;28.20;92.40;;;;;;5043912;28;20473;-64
2022/06/29 10:26:35;;;;;;;1.75;1.58;;;28.30;92.60;;;;;;5048800;28;20059;-63
2022/06/29 10:29:09;;;;;;;4.28;1.77;;;28.40;92.00;;;;;;5047775;28;20106;-62
2022/06/29 10:31:49;;;;;;;1.88;1.60;;;28.60;91.70;;;;;;5043639;28;20565;-63
2022/06/29 10:34:30;;;;;;;4.13;1.60;;;28.60;91.30;;;;;;5047410;28;20063;-63
2022/06/29 10:37:02;;;;;;;3.65;1.80;;;28.80;91.60;;;;;;5046227;28;20056;-62
2022/06/29 10:39:54;;;;;;;3.55;1.98;;;29.00;90.90;;;;;;5051012;28;20120;-63
2022/06/29 10:45:18;;;;;;;2.75;1.80;;;28.70;90.80;;;;;;5052159;28;20041;-63
2022/06/29 10:47:45;;;;;;;2.72;1.92;;;28.50;90.50;;;;;;5052719;28;20243;-63
2022/06/29 10:50:23;;;;;;;2.85;1.77;;;28.40;90.80;;;;;;5051261;28;20033;-63
2022/06/29 10:53:10;;;;;;;2.90;1.80;;;28.40;90.80;;;;;;5051732;28;20033;-63
2022/06/29 10:55:38;;;;;;;3.13;1.70;;;28.50;90.20;;;;;;5043956;28;20054;-62
2022/06/29 10:58:04;;;;;;;2.33;1.88;;;28.50;90.00;;;;;;5036796;28;20622;-62
2022/06/29 11:00:34;;;;;;;3.13;1.95;;;28.60;90.30;;;;;;5049540;28;20116;-62
2022/06/29 11:03:21;;;;;;;2.28;1.73;;;28.70;90.50;;;;;;5050833;28;20383;-63
2022/06/29 11:14:05;;;;;;;4.13;1.70;;;28.70;90.20;;;;;;5049711;28;20041;-63
2022/06/29 11:16:36;;;;;;;3.28;2.03;;;28.80;90.70;;;;;;5050236;28;20036;-63
2022/06/29 11:19:03;;;;;;;2.78;1.90;;;28.90;90.90;;;;;;5051945;28;20044;-62
2022/06/29 11:21:29;;;;;;;2.40;1.60;;;29.00;91.10;;;;;;5048315;28;20057;-63
2022/06/29 11:24:04;;;;;;;2.20;1.92;;;29.20;90.70;;;;;;5049466;28;20049;-63
2022/06/29 11:26:32;;;;;;;2.90;1.90;;;29.30;90.30;;;;;;5049800;28;20029;-63
2022/06/29 11:28:57;;;;;;;2.28;2.00;;;29.30;90.70;;;;;;5054286;28;20037;-62
2022/06/29 11:31:23;;;;;;;3.05;1.90;;;29.30;90.70;;;;;;5050218;28;20116;-64
2022/06/29 11:33:56;;;;;;;2.47;1.80;;;29.30;90.20;;;;;;5050907;28;20533;-63
2022/06/29 11:36:25;;;;;;;1.90;1.70;;;29.20;90.40;;;;;;5051102;28;20041;-63
2022/06/29 11:38:55;;;;;;;4.30;2.22;;;29.30;90.60;;;;;;5050834;28;20079;-63
2022/06/29 11:43:03;;;;;;;3.85;1.95;;;29.30;90.20;;;;;;5049185;28;20047;-63
2022/06/29 11:44:30;;;;;;;5.47;2.17;;;29.30;90.40;;;;;;5049391;28;20450;-64
2022/06/29 11:46:57;;;;;;;5.15;2.13;;;29.40;89.00;;;;;;5046708;28;20112;-64
2022/06/29 11:49:42;;;;;;;2.60;2.10;;;29.40;89.10;;;;;;5032701;28;20108;-63
2022/06/29 11:52:12;;;;;;;3.60;2.20;;;29.40;90.10;;;;;;5049855;28;21289;-63
2022/06/29 11:54:41;;;;;;;3.92;2.38;;;29.40;90.60;;;;;;5043858;28;20041;-64
2022/06/29 11:57:15;;;;;;;5.78;2.58;;;29.30;90.60;;;;;;5047974;28;20036;-64
2022/06/29 11:59:44;;;;;;;5.85;2.90;;;29.20;91.00;;;;;;5047517;28;20114;-63
2022/06/29 12:02:11;;;;;;;3.58;2.58;;;29.20;91.40;;;;;;5047791;28;20037;-63
2022/06/29 12:04:37;;;;;;;4.35;2.50;;;29.20;91.40;;;;;;5051232;28;20118;-62
2022/06/29 12:07:03;;;;;;;4.07;2.80;;;29.10;91.40;;;;;;5050233;28;20045;-63
2022/06/29 12:09:29;;;;;;;3.67;2.50;;;29.00;91.60;;;;;;5055421;28;20033;-63
2022/06/29 12:11:55;;;;;;;5.57;3.42;;;28.90;91.90;;;;;;5050786;28;20056;-63
2022/06/29 12:14:20;;;;;;;4.53;3.00;;;28.70;91.90;;;;;;5046428;28;20040;-64
2022/06/29 12:16:47;;;;;;;4.90;2.50;;;28.70;92.20;;;;;;5051780;28;20055;-63
2022/06/29 12:19:12;;;;;;;3.83;2.60;;;28.70;91.50;;;;;;5032409;28;20041;-63
2022/06/29 12:21:38;;;;;;;3.03;2.40;;;28.70;91.70;;;;;;5036030;28;20058;-63
2022/06/29 12:24:04;;;;;;;3.58;2.78;;;28.60;92.00;;;;;;5048290;28;20530;-63
2022/06/29 12:26:30;;;;;;;6.55;3.22;;;28.50;91.70;;;;;;5048841;28;20117;-63
2022/06/29 12:28:56;;;;;;;3.53;2.50;;;28.50;92.10;;;;;;5051609;28;20033;-63
2022/06/29 12:31:24;;;;;;;3.72;2.75;;;28.60;92.50;;;;;;5049047;28;20047;-63
2022/06/29 12:33:50;;;;;;;4.82;2.90;;;28.70;92.20;;;;;;5049931;28;20033;-63
2022/06/29 12:36:16;;;;;;;8.30;2.65;;;28.80;91.60;;;;;;5050387;28;20044;-63
2022/06/29 12:38:41;;;;;;;4.72;2.92;;;28.80;92.10;;;;;;5044968;28;20426;-63
2022/06/29 12:41:07;;;;;;;4.65;2.65;;;28.90;92.00;;;;;;5049681;28;20040;-64
2022/06/29 12:43:33;;;;;;;5.72;2.90;;;28.90;92.20;;;;;;5046822;28;20040;-63
2022/06/29 12:45:59;;;;;;;3.90;2.50;;;28.90;91.30;;;;;;5050285;28;20033;-63
2022/06/29 12:48:25;;;;;;;4.88;2.70;;;28.80;90.90;;;;;;5047967;28;20065;-63
2022/06/29 12:50:51;;;;;;;3.35;2.55;;;28.70;91.00;;;;;;5049047;28;20126;-63
2022/06/29 12:53:16;;;;;;;4.25;2.80;;;28.70;90.60;;;;;;5047037;28;20481;-63
2022/06/29 12:55:43;;;;;;;3.53;2.70;;;28.70;91.30;;;;;;5045049;28;20041;-63
2022/06/29 12:58:09;;;;;;;3.35;2.40;;;28.80;91.00;;;;;;5050400;28;20044;-63
2022/06/29 13:00:35;;;;;;;3.15;2.55;;;28.90;90.70;;;;;;5046652;28;20115;-63
2022/06/29 13:03:01;;;;;;;4.03;2.40;;;29.00;90.60;;;;;;5048716;28;20041;-63
2022/06/29 13:05:27;;;;;;;4.30;2.53;;;29.10;89.90;;;;;;5046648;28;20340;-64
2022/06/29 13:07:52;;;;;;;2.70;2.30;;;29.10;90.00;;;;;;5051020;28;20129;-63
2022/06/29 13:10:18;;;;;;;5.28;2.33;;;29.10;90.10;;;;;;5051045;28;20047;-63
2022/06/29 13:12:45;;;;;;;2.75;2.00;;;29.00;89.60;;;;;;5017391;28;20049;-64
2022/06/29 13:15:10;;;;;;;4.88;2.25;;;29.20;90.10;;;;;;5047051;28;20048;-63
2022/06/29 13:17:36;;;;;;;3.42;2.47;;;29.30;88.50;;;;;;5048831;28;20048;-63